sensor_id;sensor_type;location;lat;lon;timestamp;P1;durP1;ratioP1;P2;durP2;ratioP2
26303;SDS011;57113;48.680;8.890;2023-02-28T00:01:08;1.52;;;1.20;;
26303;SDS011;57113;48.680;8.890;2023-02-28T00:03:35;2.55;;;1.65;;
26303;SDS011;57113;48.680;8.890;2023-02-28T00:06:02;1.88;;;1.40;;
26303;SDS011;57113;48.680;8.890;2023-02-28T00:08:28;3.08;;;1.50;;
26303;SDS011;57113;48.680;8.890;2023-02-28T00:10:54;2.88;;;1.38;;
26303;SDS011;57113;48.680;8.890;2023-02-28T00:13:20;2.63;;;1.58;;
26303;SDS011;57113;48.680;8.890;2023-02-28T00:15:46;2.92;;;1.58;;
26303;SDS011;57113;48.680;8.890;2023-02-28T00:18:12;3.35;;;1.50;;
26303;SDS011;57113;48.680;8.890;2023-02-28T00:20:38;3.20;;;1.50;;
26303;SDS011;57113;48.680;8.890;2023-02-28T00:23:04;3.25;;;1.23;;
26303;SDS011;57113;48.680;8.890;2023-02-28T00:25:30;1.92;;;1.30;;
26303;SDS011;57113;48.680;8.890;2023-02-28T00:27:56;2.90;;;1.55;;
26303;SDS011;57113;48.680;8.890;2023-02-28T00:30:23;2.33;;;1.33;;
26303;SDS011;57113;48.680;8.890;2023-02-28T00:32:49;3.90;;;1.83;;
26303;SDS011;57113;48.680;8.890;2023-02-28T00:35:16;2.53;;;1.30;;
26303;SDS011;57113;48.680;8.890;2023-02-28T00:37:42;2.58;;;1.38;;
26303;SDS011;57113;48.680;8.890;2023-02-28T00:40:08;3.83;;;1.67;;
26303;SDS011;57113;48.680;8.890;2023-02-28T00:42:36;3.53;;;1.60;;
26303;SDS011;57113;48.680;8.890;2023-02-28T00:45:02;2.45;;;1.40;;
26303;SDS011;57113;48.680;8.890;2023-02-28T00:47:33;2.35;;;1.42;;
26303;SDS011;57113;48.680;8.890;2023-02-28T00:49:59;3.13;;;1.50;;
26303;SDS011;57113;48.680;8.890;2023-02-28T00:52:25;2.20;;;1.42;;
26303;SDS011;57113;48.680;8.890;2023-02-28T00:54:52;2.78;;;1.55;;
26303;SDS011;57113;48.680;8.890;2023-02-28T00:57:18;2.53;;;1.27;;
26303;SDS011;57113;48.680;8.890;2023-02-28T00:59:44;3.13;;;1.55;;
26303;SDS011;57113;48.680;8.890;2023-02-28T01:02:09;2.40;;;1.40;;
26303;SDS011;57113;48.680;8.890;2023-02-28T01:04:36;2.47;;;1.55;;
26303;SDS011;57113;48.680;8.890;2023-02-28T01:07:01;2.25;;;1.30;;
26303;SDS011;57113;48.680;8.890;2023-02-28T01:09:28;2.25;;;1.45;;
26303;SDS011;57113;48.680;8.890;2023-02-28T01:11:54;2.78;;;1.60;;
26303;SDS011;57113;48.680;8.890;2023-02-28T01:14:20;2.42;;;1.52;;
26303;SDS011;57113;48.680;8.890;2023-02-28T01:16:46;3.03;;;1.48;;
26303;SDS011;57113;48.680;8.890;2023-02-28T01:19:12;4.53;;;1.38;;
26303;SDS011;57113;48.680;8.890;2023-02-28T01:21:38;3.65;;;1.38;;
26303;SDS011;57113;48.680;8.890;2023-02-28T01:24:04;3.33;;;1.42;;
26303;SDS011;57113;48.680;8.890;2023-02-28T01:26:31;2.67;;;1.23;;
26303;SDS011;57113;48.680;8.890;2023-02-28T01:28:57;2.47;;;1.40;;
26303;SDS011;57113;48.680;8.890;2023-02-28T01:31:23;2.53;;;1.60;;
26303;SDS011;57113;48.680;8.890;2023-02-28T01:33:49;2.67;;;1.42;;
26303;SDS011;57113;48.680;8.890;2023-02-28T01:36:19;3.40;;;1.40;;
26303;SDS011;57113;48.680;8.890;2023-02-28T01:38:45;1.98;;;1.30;;
26303;SDS011;57113;48.680;8.890;2023-02-28T01:46:10;2.95;;;1.52;;
26303;SDS011;57113;48.680;8.890;2023-02-28T01:48:40;5.93;;;1.70;;
26303;SDS011;57113;48.680;8.890;2023-02-28T01:51:09;3.72;;;1.60;;
26303;SDS011;57113;48.680;8.890;2023-02-28T01:53:39;2.15;;;1.35;;
26303;SDS011;57113;48.680;8.890;2023-02-28T01:56:07;2.45;;;1.50;;
26303;SDS011;57113;48.680;8.890;2023-02-28T01:58:34;3.38;;;1.70;;
26303;SDS011;57113;48.680;8.890;2023-02-28T02:01:02;1.95;;;1.33;;
26303;SDS011;57113;48.680;8.890;2023-02-28T02:03:28;4.07;;;1.75;;
26303;SDS011;57113;48.680;8.890;2023-02-28T02:05:54;2.35;;;1.35;;
26303;SDS011;57113;48.680;8.890;2023-02-28T02:08:24;2.67;;;1.58;;
26303;SDS011;57113;48.680;8.890;2023-02-28T02:10:51;2.10;;;1.33;;
26303;SDS011;57113;48.680;8.890;2023-02-28T02:13:21;2.30;;;1.48;;
26303;SDS011;57113;48.680;8.890;2023-02-28T02:20:55;3.92;;;1.58;;
26303;SDS011;57113;48.680;8.890;2023-02-28T02:28:30;2.30;;;1.60;;
26303;SDS011;57113;48.680;8.890;2023-02-28T02:36:33;3.38;;;1.50;;
26303;SDS011;57113;48.680;8.890;2023-02-28T02:39:13;3.15;;;1.80;;
26303;SDS011;57113;48.680;8.890;2023-02-28T02:44:18;2.85;;;1.77;;
26303;SDS011;57113;48.680;8.890;2023-02-28T02:46:47;2.67;;;1.70;;
26303;SDS011;57113;48.680;8.890;2023-02-28T02:49:20;2.75;;;1.58;;
26303;SDS011;57113;48.680;8.890;2023-02-28T02:51:47;2.78;;;1.60;;
26303;SDS011;57113;48.680;8.890;2023-02-28T02:54:32;4.85;;;1.70;;
26303;SDS011;57113;48.680;8.890;2023-02-28T02:57:00;2.47;;;1.55;;
26303;SDS011;57113;48.680;8.890;2023-02-28T02:59:28;4.88;;;1.88;;
26303;SDS011;57113;48.680;8.890;2023-02-28T03:01:56;5.38;;;1.70;;
26303;SDS011;57113;48.680;8.890;2023-02-28T03:04:23;3.20;;;1.90;;
26303;SDS011;57113;48.680;8.890;2023-02-28T03:06:50;2.88;;;1.75;;
26303;SDS011;57113;48.680;8.890;2023-02-28T03:09:23;3.40;;;1.90;;
26303;SDS011;57113;48.680;8.890;2023-02-28T03:11:49;4.00;;;1.92;;
26303;SDS011;57113;48.680;8.890;2023-02-28T03:22:40;3.38;;;1.80;;
26303;SDS011;57113;48.680;8.890;2023-02-28T03:30:10;3.65;;;1.73;;
26303;SDS011;57113;48.680;8.890;2023-02-28T03:32:38;3.42;;;1.70;;
26303;SDS011;57113;48.680;8.890;2023-02-28T03:35:08;3.42;;;1.67;;
26303;SDS011;57113;48.680;8.890;2023-02-28T03:37:36;3.17;;;1.80;;
26303;SDS011;57113;48.680;8.890;2023-02-28T03:40:05;2.78;;;1.80;;
26303;SDS011;57113;48.680;8.890;2023-02-28T03:42:34;4.05;;;2.15;;
26303;SDS011;57113;48.680;8.890;2023-02-28T03:45:05;3.05;;;1.60;;
26303;SDS011;57113;48.680;8.890;2023-02-28T03:47:36;2.50;;;1.60;;
26303;SDS011;57113;48.680;8.890;2023-02-28T03:50:10;3.00;;;1.75;;
26303;SDS011;57113;48.680;8.890;2023-02-28T03:53:21;3.55;;;1.92;;
26303;SDS011;57113;48.680;8.890;2023-02-28T03:55:30;2.53;;;1.52;;
26303;SDS011;57113;48.680;8.890;2023-02-28T03:57:59;3.03;;;1.88;;
26303;SDS011;57113;48.680;8.890;2023-02-28T04:00:29;4.25;;;2.00;;
26303;SDS011;57113;48.680;8.890;2023-02-28T04:02:55;3.75;;;2.15;;
26303;SDS011;57113;48.680;8.890;2023-02-28T04:05:22;3.15;;;1.90;;
26303;SDS011;57113;48.680;8.890;2023-02-28T04:07:48;2.63;;;1.67;;
26303;SDS011;57113;48.680;8.890;2023-02-28T04:10:14;2.17;;;1.65;;
26303;SDS011;57113;48.680;8.890;2023-02-28T04:12:40;4.28;;;1.60;;
26303;SDS011;57113;48.680;8.890;2023-02-28T04:15:07;3.00;;;1.80;;
26303;SDS011;57113;48.680;8.890;2023-02-28T04:17:33;3.05;;;1.70;;
26303;SDS011;57113;48.680;8.890;2023-02-28T04:19:59;4.07;;;1.88;;
26303;SDS011;57113;48.680;8.890;2023-02-28T04:22:25;3.15;;;1.90;;
26303;SDS011;57113;48.680;8.890;2023-02-28T04:24:51;3.92;;;2.05;;
26303;SDS011;57113;48.680;8.890;2023-02-28T04:27:19;3.25;;;1.67;;
26303;SDS011;57113;48.680;8.890;2023-02-28T04:29:45;3.05;;;1.80;;
26303;SDS011;57113;48.680;8.890;2023-02-28T04:32:11;2.90;;;1.83;;
26303;SDS011;57113;48.680;8.890;2023-02-28T04:34:37;4.07;;;2.00;;
26303;SDS011;57113;48.680;8.890;2023-02-28T04:37:04;2.88;;;1.70;;
26303;SDS011;57113;48.680;8.890;2023-02-28T04:39:30;4.38;;;2.20;;
26303;SDS011;57113;48.680;8.890;2023-02-28T04:42:00;3.20;;;1.77;;
26303;SDS011;57113;48.680;8.890;2023-02-28T04:44:26;2.50;;;1.80;;
26303;SDS011;57113;48.680;8.890;2023-02-28T04:46:52;3.50;;;1.83;;
26303;SDS011;57113;48.680;8.890;2023-02-28T04:49:18;5.03;;;1.90;;
26303;SDS011;57113;48.680;8.890;2023-02-28T04:51:44;3.17;;;2.00;;
26303;SDS011;57113;48.680;8.890;2023-02-28T04:54:10;3.25;;;1.83;;
26303;SDS011;57113;48.680;8.890;2023-02-28T04:56:36;3.25;;;2.03;;
26303;SDS011;57113;48.680;8.890;2023-02-28T04:59:02;3.90;;;1.85;;
26303;SDS011;57113;48.680;8.890;2023-02-28T05:01:30;4.47;;;2.38;;
26303;SDS011;57113;48.680;8.890;2023-02-28T05:03:57;2.72;;;1.80;;
26303;SDS011;57113;48.680;8.890;2023-02-28T05:06:24;3.65;;;1.92;;
26303;SDS011;57113;48.680;8.890;2023-02-28T05:08:51;2.65;;;1.85;;
26303;SDS011;57113;48.680;8.890;2023-02-28T05:11:18;4.00;;;2.17;;
26303;SDS011;57113;48.680;8.890;2023-02-28T05:13:45;3.90;;;2.00;;
26303;SDS011;57113;48.680;8.890;2023-02-28T05:16:11;2.85;;;1.83;;
26303;SDS011;57113;48.680;8.890;2023-02-28T05:18:37;3.85;;;2.40;;
26303;SDS011;57113;48.680;8.890;2023-02-28T05:21:03;3.38;;;1.77;;
26303;SDS011;57113;48.680;8.890;2023-02-28T05:23:29;3.15;;;2.10;;
26303;SDS011;57113;48.680;8.890;2023-02-28T05:25:55;4.03;;;2.17;;
26303;SDS011;57113;48.680;8.890;2023-02-28T05:28:21;3.25;;;1.80;;
26303;SDS011;57113;48.680;8.890;2023-02-28T05:30:47;3.92;;;2.22;;
26303;SDS011;57113;48.680;8.890;2023-02-28T05:33:14;5.32;;;1.90;;
26303;SDS011;57113;48.680;8.890;2023-02-28T05:35:40;4.35;;;2.30;;
26303;SDS011;57113;48.680;8.890;2023-02-28T05:38:07;4.20;;;2.05;;
26303;SDS011;57113;48.680;8.890;2023-02-28T05:40:34;3.17;;;1.92;;
26303;SDS011;57113;48.680;8.890;2023-02-28T05:43:00;3.83;;;2.05;;
26303;SDS011;57113;48.680;8.890;2023-02-28T05:45:26;4.13;;;2.17;;
26303;SDS011;57113;48.680;8.890;2023-02-28T05:47:55;4.88;;;2.53;;
26303;SDS011;57113;48.680;8.890;2023-02-28T05:50:21;3.53;;;2.17;;
26303;SDS011;57113;48.680;8.890;2023-02-28T05:52:50;3.65;;;2.10;;
26303;SDS011;57113;48.680;8.890;2023-02-28T05:55:17;4.30;;;2.03;;
26303;SDS011;57113;48.680;8.890;2023-02-28T05:57:43;2.97;;;2.08;;
26303;SDS011;57113;48.680;8.890;2023-02-28T06:00:10;3.15;;;2.03;;
26303;SDS011;57113;48.680;8.890;2023-02-28T06:02:37;3.33;;;2.13;;
26303;SDS011;57113;48.680;8.890;2023-02-28T06:05:04;3.35;;;1.98;;
26303;SDS011;57113;48.680;8.890;2023-02-28T06:07:30;3.47;;;2.10;;
26303;SDS011;57113;48.680;8.890;2023-02-28T06:09:56;3.17;;;2.00;;
26303;SDS011;57113;48.680;8.890;2023-02-28T06:12:23;4.30;;;2.13;;
26303;SDS011;57113;48.680;8.890;2023-02-28T06:14:49;3.20;;;1.98;;
26303;SDS011;57113;48.680;8.890;2023-02-28T06:17:15;2.90;;;1.92;;
26303;SDS011;57113;48.680;8.890;2023-02-28T06:19:41;5.43;;;2.30;;
26303;SDS011;57113;48.680;8.890;2023-02-28T06:22:07;3.33;;;2.05;;
26303;SDS011;57113;48.680;8.890;2023-02-28T06:24:33;4.18;;;2.20;;
26303;SDS011;57113;48.680;8.890;2023-02-28T06:26:59;5.45;;;2.38;;
26303;SDS011;57113;48.680;8.890;2023-02-28T06:29:30;3.47;;;2.10;;
26303;SDS011;57113;48.680;8.890;2023-02-28T06:31:56;2.55;;;1.80;;
26303;SDS011;57113;48.680;8.890;2023-02-28T06:34:22;4.32;;;2.17;;
26303;SDS011;57113;48.680;8.890;2023-02-28T06:36:49;3.78;;;2.20;;
26303;SDS011;57113;48.680;8.890;2023-02-28T06:39:15;4.63;;;2.03;;
26303;SDS011;57113;48.680;8.890;2023-02-28T06:41:42;3.63;;;2.25;;
26303;SDS011;57113;48.680;8.890;2023-02-28T06:44:11;2.75;;;2.00;;
26303;SDS011;57113;48.680;8.890;2023-02-28T06:46:38;7.43;;;2.40;;
26303;SDS011;57113;48.680;8.890;2023-02-28T06:49:05;2.75;;;1.90;;
26303;SDS011;57113;48.680;8.890;2023-02-28T06:51:33;4.13;;;2.20;;
26303;SDS011;57113;48.680;8.890;2023-02-28T06:53:59;3.67;;;2.40;;
26303;SDS011;57113;48.680;8.890;2023-02-28T06:56:25;3.97;;;2.20;;
26303;SDS011;57113;48.680;8.890;2023-02-28T06:58:51;4.07;;;2.50;;
26303;SDS011;57113;48.680;8.890;2023-02-28T07:01:18;5.05;;;2.47;;
26303;SDS011;57113;48.680;8.890;2023-02-28T07:03:44;3.22;;;2.25;;
26303;SDS011;57113;48.680;8.890;2023-02-28T07:06:10;4.35;;;2.17;;
26303;SDS011;57113;48.680;8.890;2023-02-28T07:08:36;5.72;;;2.20;;
26303;SDS011;57113;48.680;8.890;2023-02-28T07:11:05;3.22;;;2.20;;
26303;SDS011;57113;48.680;8.890;2023-02-28T07:13:31;4.32;;;2.28;;
26303;SDS011;57113;48.680;8.890;2023-02-28T07:16:00;3.75;;;2.03;;
26303;SDS011;57113;48.680;8.890;2023-02-28T07:18:27;4.20;;;2.25;;
26303;SDS011;57113;48.680;8.890;2023-02-28T07:20:53;3.53;;;2.42;;
26303;SDS011;57113;48.680;8.890;2023-02-28T07:23:20;4.18;;;2.45;;
26303;SDS011;57113;48.680;8.890;2023-02-28T07:25:46;3.22;;;2.22;;
26303;SDS011;57113;48.680;8.890;2023-02-28T07:28:12;4.30;;;2.55;;
26303;SDS011;57113;48.680;8.890;2023-02-28T07:30:38;3.92;;;2.25;;
26303;SDS011;57113;48.680;8.890;2023-02-28T07:33:04;3.95;;;2.22;;
26303;SDS011;57113;48.680;8.890;2023-02-28T07:35:30;3.75;;;2.22;;
26303;SDS011;57113;48.680;8.890;2023-02-28T07:37:57;2.95;;;2.08;;
26303;SDS011;57113;48.680;8.890;2023-02-28T07:40:23;3.50;;;2.25;;
26303;SDS011;57113;48.680;8.890;2023-02-28T07:42:49;4.07;;;2.20;;
26303;SDS011;57113;48.680;8.890;2023-02-28T07:45:15;3.60;;;2.42;;
26303;SDS011;57113;48.680;8.890;2023-02-28T07:47:42;4.18;;;2.45;;
26303;SDS011;57113;48.680;8.890;2023-02-28T07:50:09;4.03;;;2.30;;
26303;SDS011;57113;48.680;8.890;2023-02-28T07:52:36;4.65;;;2.65;;
26303;SDS011;57113;48.680;8.890;2023-02-28T07:55:02;4.35;;;2.60;;
26303;SDS011;57113;48.680;8.890;2023-02-28T07:57:29;3.85;;;2.17;;
26303;SDS011;57113;48.680;8.890;2023-02-28T07:59:55;5.60;;;2.33;;
26303;SDS011;57113;48.680;8.890;2023-02-28T08:02:21;4.28;;;2.65;;
26303;SDS011;57113;48.680;8.890;2023-02-28T08:04:47;5.38;;;2.58;;
26303;SDS011;57113;48.680;8.890;2023-02-28T08:07:14;3.72;;;2.65;;
26303;SDS011;57113;48.680;8.890;2023-02-28T08:09:40;3.88;;;2.40;;
26303;SDS011;57113;48.680;8.890;2023-02-28T08:12:07;5.22;;;2.55;;
26303;SDS011;57113;48.680;8.890;2023-02-28T08:14:33;4.72;;;2.55;;
26303;SDS011;57113;48.680;8.890;2023-02-28T08:17:00;3.72;;;2.47;;
26303;SDS011;57113;48.680;8.890;2023-02-28T08:19:26;3.80;;;2.45;;
26303;SDS011;57113;48.680;8.890;2023-02-28T08:21:52;5.07;;;2.78;;
26303;SDS011;57113;48.680;8.890;2023-02-28T08:24:18;3.78;;;2.50;;
26303;SDS011;57113;48.680;8.890;2023-02-28T08:26:44;4.18;;;2.60;;
26303;SDS011;57113;48.680;8.890;2023-02-28T08:29:10;5.15;;;2.78;;
26303;SDS011;57113;48.680;8.890;2023-02-28T08:31:36;5.47;;;2.60;;
26303;SDS011;57113;48.680;8.890;2023-02-28T08:34:08;4.47;;;2.72;;
26303;SDS011;57113;48.680;8.890;2023-02-28T08:36:35;5.00;;;2.70;;
26303;SDS011;57113;48.680;8.890;2023-02-28T08:39:02;4.50;;;2.80;;
26303;SDS011;57113;48.680;8.890;2023-02-28T08:41:28;5.60;;;2.95;;
26303;SDS011;57113;48.680;8.890;2023-02-28T08:43:54;4.68;;;2.88;;
26303;SDS011;57113;48.680;8.890;2023-02-28T08:46:20;7.60;;;2.40;;
26303;SDS011;57113;48.680;8.890;2023-02-28T08:48:46;4.13;;;2.90;;
26303;SDS011;57113;48.680;8.890;2023-02-28T08:51:13;4.93;;;3.30;;
26303;SDS011;57113;48.680;8.890;2023-02-28T08:53:43;3.70;;;2.47;;
26303;SDS011;57113;48.680;8.890;2023-02-28T08:56:12;4.40;;;2.63;;
26303;SDS011;57113;48.680;8.890;2023-02-28T08:58:38;6.07;;;3.28;;
26303;SDS011;57113;48.680;8.890;2023-02-28T09:01:09;4.78;;;2.95;;
26303;SDS011;57113;48.680;8.890;2023-02-28T09:03:35;4.85;;;3.00;;
26303;SDS011;57113;48.680;8.890;2023-02-28T09:06:01;4.05;;;2.70;;
26303;SDS011;57113;48.680;8.890;2023-02-28T09:08:28;5.85;;;3.10;;
26303;SDS011;57113;48.680;8.890;2023-02-28T09:10:57;5.50;;;3.50;;
26303;SDS011;57113;48.680;8.890;2023-02-28T09:13:25;4.70;;;2.95;;
26303;SDS011;57113;48.680;8.890;2023-02-28T09:15:51;4.95;;;3.22;;
26303;SDS011;57113;48.680;8.890;2023-02-28T09:18:18;5.22;;;3.33;;
26303;SDS011;57113;48.680;8.890;2023-02-28T09:20:44;5.80;;;3.53;;
26303;SDS011;57113;48.680;8.890;2023-02-28T09:23:11;6.55;;;3.25;;
26303;SDS011;57113;48.680;8.890;2023-02-28T09:25:37;4.00;;;3.00;;
26303;SDS011;57113;48.680;8.890;2023-02-28T09:28:03;5.95;;;4.05;;
26303;SDS011;57113;48.680;8.890;2023-02-28T09:30:29;6.10;;;3.55;;
26303;SDS011;57113;48.680;8.890;2023-02-28T09:32:55;5.70;;;3.47;;
26303;SDS011;57113;48.680;8.890;2023-02-28T09:35:22;5.15;;;3.45;;
26303;SDS011;57113;48.680;8.890;2023-02-28T09:37:49;4.95;;;3.45;;
26303;SDS011;57113;48.680;8.890;2023-02-28T09:40:16;8.63;;;4.07;;
26303;SDS011;57113;48.680;8.890;2023-02-28T09:42:44;4.63;;;3.40;;
26303;SDS011;57113;48.680;8.890;2023-02-28T09:45:16;7.68;;;3.63;;
26303;SDS011;57113;48.680;8.890;2023-02-28T09:47:45;4.75;;;3.25;;
26303;SDS011;57113;48.680;8.890;2023-02-28T09:50:23;5.35;;;3.53;;
26303;SDS011;57113;48.680;8.890;2023-02-28T09:52:52;4.50;;;2.97;;
26303;SDS011;57113;48.680;8.890;2023-02-28T09:55:22;5.57;;;3.25;;
26303;SDS011;57113;48.680;8.890;2023-02-28T09:57:51;6.53;;;3.72;;
26303;SDS011;57113;48.680;8.890;2023-02-28T10:00:18;5.20;;;3.20;;
26303;SDS011;57113;48.680;8.890;2023-02-28T10:08:05;10.15;;;3.80;;
26303;SDS011;57113;48.680;8.890;2023-02-28T10:10:49;5.28;;;3.40;;
26303;SDS011;57113;48.680;8.890;2023-02-28T10:15:47;6.00;;;3.72;;
26303;SDS011;57113;48.680;8.890;2023-02-28T10:18:17;6.13;;;3.15;;
26303;SDS011;57113;48.680;8.890;2023-02-28T10:20:43;5.43;;;3.45;;
26303;SDS011;57113;48.680;8.890;2023-02-28T10:23:17;5.65;;;3.25;;
26303;SDS011;57113;48.680;8.890;2023-02-28T10:25:46;6.30;;;3.30;;
26303;SDS011;57113;48.680;8.890;2023-02-28T10:28:15;5.07;;;3.45;;
26303;SDS011;57113;48.680;8.890;2023-02-28T10:30:44;6.63;;;3.63;;
26303;SDS011;57113;48.680;8.890;2023-02-28T10:33:15;6.53;;;3.70;;
26303;SDS011;57113;48.680;8.890;2023-02-28T10:35:44;5.05;;;3.58;;
26303;SDS011;57113;48.680;8.890;2023-02-28T10:38:14;5.47;;;3.22;;
26303;SDS011;57113;48.680;8.890;2023-02-28T10:40:41;6.15;;;3.35;;
26303;SDS011;57113;48.680;8.890;2023-02-28T10:45:39;5.40;;;3.50;;
26303;SDS011;57113;48.680;8.890;2023-02-28T10:48:06;5.43;;;3.58;;
26303;SDS011;57113;48.680;8.890;2023-02-28T10:50:52;5.85;;;3.50;;
26303;SDS011;57113;48.680;8.890;2023-02-28T10:56:00;6.00;;;3.85;;
26303;SDS011;57113;48.680;8.890;2023-02-28T10:58:29;7.35;;;3.90;;
26303;SDS011;57113;48.680;8.890;2023-02-28T11:00:55;4.78;;;3.53;;
26303;SDS011;57113;48.680;8.890;2023-02-28T11:03:31;6.65;;;3.50;;
26303;SDS011;57113;48.680;8.890;2023-02-28T11:05:58;6.13;;;3.35;;
26303;SDS011;57113;48.680;8.890;2023-02-28T11:08:29;6.10;;;3.55;;
26303;SDS011;57113;48.680;8.890;2023-02-28T11:10:56;6.60;;;3.58;;
26303;SDS011;57113;48.680;8.890;2023-02-28T11:13:28;7.05;;;3.70;;
26303;SDS011;57113;48.680;8.890;2023-02-28T11:15:57;7.07;;;3.85;;
26303;SDS011;57113;48.680;8.890;2023-02-28T11:18:29;9.82;;;3.95;;
26303;SDS011;57113;48.680;8.890;2023-02-28T11:20:56;5.10;;;3.60;;
26303;SDS011;57113;48.680;8.890;2023-02-28T11:23:24;6.50;;;3.88;;
26303;SDS011;57113;48.680;8.890;2023-02-28T11:25:52;7.43;;;3.63;;
26303;SDS011;57113;48.680;8.890;2023-02-28T11:31:01;5.47;;;3.88;;
26303;SDS011;57113;48.680;8.890;2023-02-28T11:33:40;6.70;;;4.00;;
26303;SDS011;57113;48.680;8.890;2023-02-28T11:36:11;7.10;;;3.75;;
26303;SDS011;57113;48.680;8.890;2023-02-28T11:38:37;5.80;;;3.95;;
26303;SDS011;57113;48.680;8.890;2023-02-28T11:46:07;6.20;;;3.80;;
26303;SDS011;57113;48.680;8.890;2023-02-28T11:48:46;5.95;;;3.80;;
26303;SDS011;57113;48.680;8.890;2023-02-28T11:51:27;6.40;;;3.80;;
26303;SDS011;57113;48.680;8.890;2023-02-28T11:54:04;6.53;;;3.60;;
26303;SDS011;57113;48.680;8.890;2023-02-28T11:56:36;6.40;;;4.43;;
26303;SDS011;57113;48.680;8.890;2023-02-28T12:01:44;6.70;;;3.42;;
26303;SDS011;57113;48.680;8.890;2023-02-28T12:06:50;5.18;;;3.53;;
26303;SDS011;57113;48.680;8.890;2023-02-28T12:09:28;5.25;;;3.47;;
26303;SDS011;57113;48.680;8.890;2023-02-28T12:22:30;4.72;;;3.70;;
26303;SDS011;57113;48.680;8.890;2023-02-28T12:30:26;4.75;;;3.53;;
26303;SDS011;57113;48.680;8.890;2023-02-28T12:32:54;7.20;;;3.80;;
26303;SDS011;57113;48.680;8.890;2023-02-28T12:35:24;4.75;;;3.40;;
26303;SDS011;57113;48.680;8.890;2023-02-28T12:37:54;5.93;;;3.35;;
26303;SDS011;57113;48.680;8.890;2023-02-28T12:40:22;5.57;;;3.80;;
26303;SDS011;57113;48.680;8.890;2023-02-28T12:42:52;4.95;;;3.53;;
26303;SDS011;57113;48.680;8.890;2023-02-28T12:45:22;5.18;;;3.05;;
26303;SDS011;57113;48.680;8.890;2023-02-28T12:47:59;4.60;;;3.30;;
26303;SDS011;57113;48.680;8.890;2023-02-28T12:50:27;5.40;;;3.30;;
26303;SDS011;57113;48.680;8.890;2023-02-28T12:53:03;6.07;;;3.47;;
26303;SDS011;57113;48.680;8.890;2023-02-28T12:58:27;5.32;;;3.33;;
26303;SDS011;57113;48.680;8.890;2023-02-28T13:03:57;4.57;;;2.97;;
26303;SDS011;57113;48.680;8.890;2023-02-28T13:06:45;5.88;;;3.75;;
26303;SDS011;57113;48.680;8.890;2023-02-28T13:09:21;7.43;;;3.75;;
26303;SDS011;57113;48.680;8.890;2023-02-28T13:11:53;6.13;;;3.38;;
26303;SDS011;57113;48.680;8.890;2023-02-28T13:19:22;5.65;;;3.67;;
26303;SDS011;57113;48.680;8.890;2023-02-28T13:21:49;5.72;;;3.17;;
26303;SDS011;57113;48.680;8.890;2023-02-28T13:34:34;5.43;;;3.20;;
26303;SDS011;57113;48.680;8.890;2023-02-28T13:39:46;5.97;;;3.50;;
26303;SDS011;57113;48.680;8.890;2023-02-28T13:47:38;5.32;;;3.03;;
26303;SDS011;57113;48.680;8.890;2023-02-28T13:55:36;3.92;;;2.78;;
26303;SDS011;57113;48.680;8.890;2023-02-28T13:58:09;6.10;;;3.25;;
26303;SDS011;57113;48.680;8.890;2023-02-28T14:00:59;5.13;;;3.30;;
26303;SDS011;57113;48.680;8.890;2023-02-28T14:06:07;5.25;;;3.58;;
26303;SDS011;57113;48.680;8.890;2023-02-28T14:08:34;4.68;;;3.30;;
26303;SDS011;57113;48.680;8.890;2023-02-28T14:11:05;5.70;;;3.60;;
26303;SDS011;57113;48.680;8.890;2023-02-28T14:13:39;7.13;;;3.30;;
26303;SDS011;57113;48.680;8.890;2023-02-28T14:16:16;4.68;;;3.08;;
26303;SDS011;57113;48.680;8.890;2023-02-28T14:18:48;6.65;;;3.10;;
26303;SDS011;57113;48.680;8.890;2023-02-28T14:31:53;4.97;;;3.20;;
26303;SDS011;57113;48.680;8.890;2023-02-28T14:36:46;4.40;;;3.00;;
26303;SDS011;57113;48.680;8.890;2023-02-28T14:39:16;5.95;;;3.38;;
26303;SDS011;57113;48.680;8.890;2023-02-28T14:41:43;4.07;;;2.88;;
26303;SDS011;57113;48.680;8.890;2023-02-28T14:46:42;5.40;;;3.40;;
26303;SDS011;57113;48.680;8.890;2023-02-28T14:51:43;3.72;;;3.08;;
26303;SDS011;57113;48.680;8.890;2023-02-28T14:54:12;5.35;;;2.90;;
26303;SDS011;57113;48.680;8.890;2023-02-28T14:56:39;5.57;;;3.20;;
26303;SDS011;57113;48.680;8.890;2023-02-28T14:59:17;6.18;;;3.35;;
26303;SDS011;57113;48.680;8.890;2023-02-28T15:01:47;7.43;;;3.15;;
26303;SDS011;57113;48.680;8.890;2023-02-28T15:04:18;4.85;;;3.10;;
26303;SDS011;57113;48.680;8.890;2023-02-28T15:06:46;3.45;;;2.72;;
26303;SDS011;57113;48.680;8.890;2023-02-28T15:09:16;4.50;;;2.72;;
26303;SDS011;57113;48.680;8.890;2023-02-28T15:11:45;5.82;;;3.40;;
26303;SDS011;57113;48.680;8.890;2023-02-28T15:14:16;5.70;;;3.00;;
26303;SDS011;57113;48.680;8.890;2023-02-28T15:16:44;4.10;;;3.05;;
26303;SDS011;57113;48.680;8.890;2023-02-28T15:19:14;4.22;;;2.67;;
26303;SDS011;57113;48.680;8.890;2023-02-28T15:21:43;4.90;;;3.03;;
26303;SDS011;57113;48.680;8.890;2023-02-28T15:24:13;4.68;;;3.00;;
26303;SDS011;57113;48.680;8.890;2023-02-28T15:26:43;5.20;;;2.90;;
26303;SDS011;57113;48.680;8.890;2023-02-28T15:29:17;4.47;;;2.85;;
26303;SDS011;57113;48.680;8.890;2023-02-28T15:31:46;4.05;;;2.97;;
26303;SDS011;57113;48.680;8.890;2023-02-28T15:34:20;5.57;;;3.00;;
26303;SDS011;57113;48.680;8.890;2023-02-28T15:36:47;7.53;;;3.53;;
26303;SDS011;57113;48.680;8.890;2023-02-28T15:39:20;4.85;;;2.97;;
26303;SDS011;57113;48.680;8.890;2023-02-28T15:41:48;4.45;;;3.13;;
26303;SDS011;57113;48.680;8.890;2023-02-28T15:44:23;4.93;;;3.10;;
26303;SDS011;57113;48.680;8.890;2023-02-28T15:49:23;5.28;;;3.05;;
26303;SDS011;57113;48.680;8.890;2023-02-28T15:51:50;4.28;;;2.97;;
26303;SDS011;57113;48.680;8.890;2023-02-28T15:54:24;4.47;;;2.88;;
26303;SDS011;57113;48.680;8.890;2023-02-28T15:56:53;4.38;;;2.92;;
26303;SDS011;57113;48.680;8.890;2023-02-28T15:59:30;3.75;;;3.05;;
26303;SDS011;57113;48.680;8.890;2023-02-28T16:04:34;4.97;;;3.33;;
26303;SDS011;57113;48.680;8.890;2023-02-28T16:07:01;4.60;;;3.08;;
26303;SDS011;57113;48.680;8.890;2023-02-28T16:09:28;4.90;;;3.28;;
26303;SDS011;57113;48.680;8.890;2023-02-28T16:11:55;4.28;;;2.95;;
26303;SDS011;57113;48.680;8.890;2023-02-28T16:14:23;5.68;;;3.67;;
26303;SDS011;57113;48.680;8.890;2023-02-28T16:16:52;5.30;;;3.28;;
26303;SDS011;57113;48.680;8.890;2023-02-28T16:19:19;5.25;;;3.67;;
26303;SDS011;57113;48.680;8.890;2023-02-28T16:21:45;4.53;;;3.15;;
26303;SDS011;57113;48.680;8.890;2023-02-28T16:24:11;4.88;;;3.33;;
26303;SDS011;57113;48.680;8.890;2023-02-28T16:26:41;5.45;;;3.35;;
26303;SDS011;57113;48.680;8.890;2023-02-28T16:29:09;4.68;;;3.25;;
26303;SDS011;57113;48.680;8.890;2023-02-28T16:31:35;4.88;;;3.00;;
26303;SDS011;57113;48.680;8.890;2023-02-28T16:34:02;4.78;;;3.70;;
26303;SDS011;57113;48.680;8.890;2023-02-28T16:36:28;5.15;;;3.80;;
26303;SDS011;57113;48.680;8.890;2023-02-28T16:38:55;5.78;;;4.15;;
26303;SDS011;57113;48.680;8.890;2023-02-28T16:41:22;6.10;;;3.40;;
26303;SDS011;57113;48.680;8.890;2023-02-28T16:43:50;7.63;;;3.25;;
26303;SDS011;57113;48.680;8.890;2023-02-28T16:46:17;5.72;;;3.33;;
26303;SDS011;57113;48.680;8.890;2023-02-28T16:48:44;4.72;;;3.30;;
26303;SDS011;57113;48.680;8.890;2023-02-28T16:51:14;5.32;;;3.78;;
26303;SDS011;57113;48.680;8.890;2023-02-28T16:53:41;6.05;;;3.55;;
26303;SDS011;57113;48.680;8.890;2023-02-28T16:56:11;4.70;;;3.38;;
26303;SDS011;57113;48.680;8.890;2023-02-28T16:58:40;5.63;;;3.78;;
26303;SDS011;57113;48.680;8.890;2023-02-28T17:01:06;5.47;;;3.75;;
26303;SDS011;57113;48.680;8.890;2023-02-28T17:03:32;5.43;;;3.75;;
26303;SDS011;57113;48.680;8.890;2023-02-28T17:05:58;4.97;;;3.58;;
26303;SDS011;57113;48.680;8.890;2023-02-28T17:08:24;5.03;;;3.28;;
26303;SDS011;57113;48.680;8.890;2023-02-28T17:10:51;6.13;;;3.70;;
26303;SDS011;57113;48.680;8.890;2023-02-28T17:13:17;6.97;;;3.85;;